Miramar, Florida
Current Conditions -  °F | °C
As of 2:53 PM on Saturday 25 Oct 2014 (Local Time) from KHWO Reporting Station
Scattered Clouds Scattered Clouds  
Wind Chill: 84°   Ceiling: Unl
Heat Index: 84°   Visibility: 10mi
Dew Point: 61°   Wind: 14mph
Humidity: 46%   Direction: 360°N
Pressure: 29.89"   Gusts: 18mph
Location:  25.98°N, 80.22°W
Report Text: KHWO 251853Z 36012G16KT 10SM SCT049 SCT060 29/16 A2989 RMK AO2 SLP121 T02890161
Loading
Personal Weather Stations






























Interactive Weather Map
Tropical Storm Tracking
New forecast layout! Learn more

10-Day Weather Forecast

Advertisements
Track Severe Weather on mobile